Time;durP1;ratioP1;P1;durP2;ratioP2;P2;SDS_P1;SDS_P2;PMS_P1;PMS_P2;Temp;Humidity;BMP_temperature;BMP_pressure;BME280_temperature;BME280_humidity;BME280_pressure;Samples;Min_cycle;Max_cycle;Signal;HPM_P1;HPM_P2
2021/08/18 00:01:53;;;;;;;9.70;6.50;;;;;;;;;;5098015;28;20212;-64
2021/08/18 00:04:21;;;;;;;11.10;6.47;;;;;;;;;;5098179;28;20225;-64
2021/08/18 00:06:49;;;;;;;9.67;6.00;;;;;;;;;;5098068;28;20201;-64
2021/08/18 00:09:19;;;;;;;9.50;6.47;;;;;;;;;;5097990;28;20260;-64
2021/08/18 00:11:47;;;;;;;9.13;6.27;;;;;;;;;;5097646;28;20563;-64
2021/08/18 00:14:15;;;;;;;10.63;7.00;;;;;;;;;;5097832;28;20221;-64
2021/08/18 00:16:43;;;;;;;8.13;5.70;;;;;;;;;;5100254;28;20209;-64
2021/08/18 00:19:11;;;;;;;9.17;5.93;;;;;;;;;;5117989;28;20576;-65
2021/08/18 00:21:39;;;;;;;9.73;6.07;;;;;;;;;;5118281;28;20215;-64
2021/08/18 00:24:07;;;;;;;10.13;6.23;;;;;;;;;;5118051;28;20228;-64
2021/08/18 00:26:36;;;;;;;11.73;6.23;;;;;;;;;;5100785;28;20201;-64
2021/08/18 00:29:04;;;;;;;12.37;6.30;;;;;;;;;;5097610;28;20233;-64
2021/08/18 00:31:32;;;;;;;8.73;5.67;;;;;;;;;;5097368;28;20296;-64
2021/08/18 00:34:00;;;;;;;8.37;5.50;;;;;;;;;;5097769;28;20235;-64
2021/08/18 00:36:28;;;;;;;8.83;6.00;;;;;;;;;;5097736;28;20216;-64
2021/08/18 00:38:56;;;;;;;9.77;6.03;;;;;;;;;;5097476;28;20211;-65
2021/08/18 00:41:24;;;;;;;7.93;5.77;;;;;;;;;;5097857;28;20210;-64
2021/08/18 00:43:54;;;;;;;10.80;6.47;;;;;;;;;;5097105;28;20592;-64
2021/08/18 00:46:22;;;;;;;12.33;6.20;;;;;;;;;;5097282;28;20206;-65
2021/08/18 00:48:50;;;;;;;10.67;5.87;;;;;;;;;;5097657;28;20680;-64
2021/08/18 00:51:18;;;;;;;10.23;6.33;;;;;;;;;;5104518;28;20205;-64
2021/08/18 00:53:46;;;;;;;7.73;5.73;;;;;;;;;;5117460;28;20247;-64
2021/08/18 00:56:14;;;;;;;8.43;5.90;;;;;;;;;;5118009;28;20205;-64
2021/08/18 00:58:42;;;;;;;8.93;6.17;;;;;;;;;;5117739;28;20201;-65
2021/08/18 01:01:11;;;;;;;10.90;5.80;;;;;;;;;;5117847;28;20201;-64
2021/08/18 01:03:39;;;;;;;10.20;5.83;;;;;;;;;;5117689;28;20258;-65
2021/08/18 01:06:07;;;;;;;9.33;5.60;;;;;;;;;;5117968;28;20205;-64
2021/08/18 01:08:35;;;;;;;10.10;6.07;;;;;;;;;;5118663;28;20221;-64
2021/08/18 01:11:03;;;;;;;11.43;7.30;;;;;;;;;;5121338;28;20677;-64
2021/08/18 01:13:31;;;;;;;7.70;4.87;;;;;;;;;;5118946;28;20203;-65
2021/08/18 01:15:59;;;;;;;8.77;5.87;;;;;;;;;;5120977;28;20211;-64
2021/08/18 01:18:29;;;;;;;8.90;6.00;;;;;;;;;;5121213;28;20193;-64
2021/08/18 01:20:57;;;;;;;9.70;5.83;;;;;;;;;;5121017;28;20296;-64
2021/08/18 01:23:25;;;;;;;9.07;5.70;;;;;;;;;;5121241;28;20197;-64
2021/08/18 01:25:54;;;;;;;11.40;5.60;;;;;;;;;;5110189;28;20212;-64
2021/08/18 01:28:26;;;;;;;10.50;5.50;;;;;;;;;;5118808;28;20221;-64
2021/08/18 01:30:54;;;;;;;12.73;5.97;;;;;;;;;;5120724;28;20288;-65
2021/08/18 01:33:22;;;;;;;7.63;5.70;;;;;;;;;;5120939;28;20200;-64
2021/08/18 01:35:51;;;;;;;7.33;5.77;;;;;;;;;;5121235;28;20209;-64
2021/08/18 01:38:20;;;;;;;8.73;5.63;;;;;;;;;;5121063;28;20283;-64
2021/08/18 01:40:50;;;;;;;9.47;5.50;;;;;;;;;;5121227;28;20217;-64
2021/08/18 01:43:18;;;;;;;10.13;5.50;;;;;;;;;;5120948;28;20743;-65
2021/08/18 01:45:48;;;;;;;10.83;5.97;;;;;;;;;;5120547;28;20233;-65
2021/08/18 01:48:18;;;;;;;8.70;5.50;;;;;;;;;;5120956;28;20200;-65
2021/08/18 01:50:46;;;;;;;11.00;6.10;;;;;;;;;;5120960;28;20212;-64
2021/08/18 01:53:15;;;;;;;13.73;6.43;;;;;;;;;;5120929;28;20205;-64
2021/08/18 01:55:43;;;;;;;8.73;5.33;;;;;;;;;;5120782;28;20228;-64
2021/08/18 01:58:11;;;;;;;7.77;5.43;;;;;;;;;;5120990;28;20211;-64
2021/08/18 02:00:39;;;;;;;7.23;5.13;;;;;;;;;;5120643;28;20211;-64
2021/08/18 02:03:09;;;;;;;9.90;5.60;;;;;;;;;;5120519;28;20652;-65
2021/08/18 02:05:37;;;;;;;11.00;5.83;;;;;;;;;;5120554;28;20228;-64
2021/08/18 02:08:05;;;;;;;9.60;5.87;;;;;;;;;;5120649;28;20206;-64
2021/08/18 02:10:34;;;;;;;9.30;5.90;;;;;;;;;;5120214;28;20232;-65
2021/08/18 02:13:02;;;;;;;7.50;5.30;;;;;;;;;;5120232;28;20232;-64
2021/08/18 02:15:31;;;;;;;13.57;5.83;;;;;;;;;;5120163;28;20245;-64
2021/08/18 02:18:00;;;;;;;12.43;5.70;;;;;;;;;;5120085;28;20567;-64
2021/08/18 02:20:31;;;;;;;9.60;5.60;;;;;;;;;;5106169;28;20265;-64
2021/08/18 02:22:59;;;;;;;8.30;5.80;;;;;;;;;;5119931;27;20204;-64
2021/08/18 02:25:27;;;;;;;7.93;5.13;;;;;;;;;;5112105;28;20225;-65
2021/08/18 02:27:55;;;;;;;9.57;5.30;;;;;;;;;;5099643;28;20205;-64
2021/08/18 02:30:24;;;;;;;9.97;5.83;;;;;;;;;;5099539;28;20236;-65
2021/08/18 02:32:53;;;;;;;6.60;5.13;;;;;;;;;;5099688;28;20201;-65
2021/08/18 02:35:22;;;;;;;9.00;5.93;;;;;;;;;;5099787;28;20257;-64
2021/08/18 02:37:51;;;;;;;10.43;5.87;;;;;;;;;;5099239;28;20211;-64
2021/08/18 02:40:20;;;;;;;8.77;6.37;;;;;;;;;;5099416;28;20201;-64
2021/08/18 02:42:48;;;;;;;8.00;5.37;;;;;;;;;;5099229;28;20254;-65
2021/08/18 02:45:17;;;;;;;7.30;5.73;;;;;;;;;;5098937;28;20280;-65
2021/08/18 02:47:45;;;;;;;7.23;5.33;;;;;;;;;;5099117;28;20541;-64
2021/08/18 02:50:14;;;;;;;9.27;5.60;;;;;;;;;;5099196;28;20760;-64
2021/08/18 02:52:42;;;;;;;12.27;5.37;;;;;;;;;;5098983;28;20206;-65
2021/08/18 02:55:12;;;;;;;7.93;5.20;;;;;;;;;;5098919;28;20308;-64
2021/08/18 02:57:40;;;;;;;8.80;5.43;;;;;;;;;;5099280;28;20213;-64
2021/08/18 03:00:09;;;;;;;10.03;5.83;;;;;;;;;;5099155;28;20201;-64
2021/08/18 03:02:37;;;;;;;9.33;5.13;;;;;;;;;;5099043;28;20211;-64
2021/08/18 03:05:06;;;;;;;13.57;5.87;;;;;;;;;;5098906;28;20704;-65
2021/08/18 03:07:34;;;;;;;9.20;5.10;;;;;;;;;;5105734;28;20205;-65
2021/08/18 03:10:02;;;;;;;8.93;5.33;;;;;;;;;;5119300;28;20225;-64
2021/08/18 03:12:31;;;;;;;7.97;4.97;;;;;;;;;;5119455;28;20215;-64
2021/08/18 03:14:59;;;;;;;9.97;5.13;;;;;;;;;;5118901;28;20221;-64
2021/08/18 03:17:27;;;;;;;10.00;5.60;;;;;;;;;;5119170;28;20281;-65
2021/08/18 03:19:55;;;;;;;9.50;5.27;;;;;;;;;;5118798;28;20591;-64
2021/08/18 03:22:23;;;;;;;11.93;5.63;;;;;;;;;;5119037;28;20550;-65
2021/08/18 03:24:51;;;;;;;8.20;5.07;;;;;;;;;;5116157;28;20243;-64
2021/08/18 03:27:19;;;;;;;6.17;4.60;;;;;;;;;;5098841;28;20201;-65
2021/08/18 03:29:48;;;;;;;8.43;5.87;;;;;;;;;;5098387;28;20225;-65
2021/08/18 03:32:16;;;;;;;10.00;4.67;;;;;;;;;;5097851;28;20205;-64
2021/08/18 03:34:44;;;;;;;6.10;5.10;;;;;;;;;;5098434;28;20225;-64
2021/08/18 03:37:12;;;;;;;9.63;4.80;;;;;;;;;;5098323;28;20210;-64
2021/08/18 03:39:40;;;;;;;11.00;5.40;;;;;;;;;;5098495;28;20204;-65
2021/08/18 03:42:08;;;;;;;9.10;4.97;;;;;;;;;;5098533;28;20203;-65
2021/08/18 03:44:36;;;;;;;7.17;4.90;;;;;;;;;;5098029;28;20230;-64
2021/08/18 03:47:05;;;;;;;9.03;4.93;;;;;;;;;;5098397;28;20210;-65
2021/08/18 03:49:33;;;;;;;9.17;5.07;;;;;;;;;;5098090;28;20281;-64
2021/08/18 03:52:01;;;;;;;8.70;5.43;;;;;;;;;;5098371;28;20205;-65
2021/08/18 03:54:29;;;;;;;7.97;5.33;;;;;;;;;;5098091;28;20692;-65
2021/08/18 03:56:57;;;;;;;7.27;5.00;;;;;;;;;;5098059;28;20205;-64
2021/08/18 03:59:25;;;;;;;7.13;4.93;;;;;;;;;;5098009;28;20205;-64
2021/08/18 04:01:53;;;;;;;10.03;4.97;;;;;;;;;;5097613;28;20548;-64
2021/08/18 04:04:23;;;;;;;7.03;5.10;;;;;;;;;;5097963;28;20289;-64
2021/08/18 04:06:50;;;;;;;7.77;5.10;;;;;;;;;;5098170;28;20206;-64
2021/08/18 04:09:18;;;;;;;7.23;4.37;;;;;;;;;;5098091;28;20223;-64
2021/08/18 04:11:46;;;;;;;6.53;4.17;;;;;;;;;;5097804;28;20225;-64
2021/08/18 04:14:14;;;;;;;9.13;4.80;;;;;;;;;;5097760;28;20233;-65
2021/08/18 04:16:42;;;;;;;6.80;4.97;;;;;;;;;;5099887;28;21345;-65
2021/08/18 04:19:10;;;;;;;7.10;4.70;;;;;;;;;;5118122;28;20242;-64
2021/08/18 04:21:39;;;;;;;9.13;4.67;;;;;;;;;;5118361;28;20201;-64
2021/08/18 04:24:07;;;;;;;10.33;5.13;;;;;;;;;;5117967;28;20713;-64
2021/08/18 04:26:35;;;;;;;8.33;4.87;;;;;;;;;;5100659;28;20672;-65
2021/08/18 04:29:03;;;;;;;6.20;4.80;;;;;;;;;;5097789;28;20212;-64
2021/08/18 04:31:31;;;;;;;7.77;4.50;;;;;;;;;;5097389;28;20232;-64
2021/08/18 04:33:59;;;;;;;11.67;4.93;;;;;;;;;;5097765;28;20239;-64
2021/08/18 04:36:27;;;;;;;6.33;4.43;;;;;;;;;;5097476;28;20216;-65
2021/08/18 04:38:56;;;;;;;7.90;4.93;;;;;;;;;;5097563;28;20205;-64
2021/08/18 04:41:24;;;;;;;7.80;4.67;;;;;;;;;;5097626;28;20201;-65
2021/08/18 04:43:52;;;;;;;9.23;4.73;;;;;;;;;;5100732;28;20316;-64
2021/08/18 04:46:20;;;;;;;6.53;4.77;;;;;;;;;;5101447;28;20678;-65
2021/08/18 04:48:48;;;;;;;8.57;5.00;;;;;;;;;;5101875;28;20205;-64
2021/08/18 04:51:16;;;;;;;5.47;4.60;;;;;;;;;;5108073;28;20231;-64
2021/08/18 04:53:44;;;;;;;7.20;4.43;;;;;;;;;;5121727;28;20733;-65
2021/08/18 04:56:13;;;;;;;6.47;4.77;;;;;;;;;;5122114;28;20205;-64
2021/08/18 04:58:41;;;;;;;9.43;5.10;;;;;;;;;;5121723;28;20211;-64
2021/08/18 05:01:09;;;;;;;8.83;5.17;;;;;;;;;;5121760;27;20207;-64
2021/08/18 05:03:38;;;;;;;6.77;4.33;;;;;;;;;;5121456;28;20733;-64
2021/08/18 05:06:06;;;;;;;7.17;4.60;;;;;;;;;;5121596;28;20548;-65
2021/08/18 05:08:33;;;;;;;6.50;5.03;;;;;;;;;;5121751;28;20287;-65
2021/08/18 05:11:01;;;;;;;5.47;4.53;;;;;;;;;;5121786;28;20232;-65
2021/08/18 05:13:31;;;;;;;5.97;4.33;;;;;;;;;;5121381;28;20676;-65
2021/08/18 05:15:59;;;;;;;9.10;5.10;;;;;;;;;;5121604;28;20215;-64
2021/08/18 05:18:27;;;;;;;5.80;4.23;;;;;;;;;;5121558;28;20232;-65
2021/08/18 05:20:55;;;;;;;6.93;4.60;;;;;;;;;;5120920;28;20236;-65
2021/08/18 05:23:22;;;;;;;6.20;3.67;;;;;;;;;;5121479;28;20200;-65
2021/08/18 05:25:51;;;;;;;8.40;5.40;;;;;;;;;;5110211;28;20292;-65
2021/08/18 05:28:20;;;;;;;8.00;4.00;;;;;;;;;;5100701;28;20205;-65
2021/08/18 05:30:49;;;;;;;5.60;3.50;;;;;;;;;;5100776;28;20569;-64
2021/08/18 05:33:17;;;;;;;7.73;3.83;;;;;;;;;;5100571;28;20209;-65
2021/08/18 05:35:52;;;;;;;7.10;4.10;;;;;;;;;;5100745;28;20283;-65
2021/08/18 05:38:20;;;;;;;6.53;4.20;;;;;;;;;;5100768;28;20210;-65
2021/08/18 05:40:47;;;;;;;7.07;4.33;;;;;;;;;;5100841;28;20201;-65
2021/08/18 05:43:15;;;;;;;5.03;3.23;;;;;;;;;;5100756;28;20657;-65
2021/08/18 05:45:43;;;;;;;6.10;4.30;;;;;;;;;;5100250;28;20230;-65
2021/08/18 05:48:13;;;;;;;8.43;4.13;;;;;;;;;;5100318;28;20665;-65
2021/08/18 05:50:41;;;;;;;8.60;3.77;;;;;;;;;;5100199;28;20229;-65
2021/08/18 05:53:15;;;;;;;6.93;4.00;;;;;;;;;;5100335;28;20602;-65
2021/08/18 05:55:43;;;;;;;5.90;3.57;;;;;;;;;;5099025;28;20714;-65
2021/08/18 05:58:11;;;;;;;8.10;4.20;;;;;;;;;;5100482;28;20206;-64
2021/08/18 06:00:39;;;;;;;8.10;4.00;;;;;;;;;;5100049;28;20237;-65
2021/08/18 06:03:07;;;;;;;6.73;3.73;;;;;;;;;;5100096;28;20206;-65
2021/08/18 06:05:37;;;;;;;6.63;4.33;;;;;;;;;;5100040;28;20225;-65
2021/08/18 06:08:05;;;;;;;7.17;3.93;;;;;;;;;;5100024;28;20228;-65
2021/08/18 06:10:33;;;;;;;10.40;4.13;;;;;;;;;;5099815;28;20575;-64
2021/08/18 06:13:02;;;;;;;6.90;4.07;;;;;;;;;;5100317;28;20263;-64
2021/08/18 06:15:30;;;;;;;8.57;4.17;;;;;;;;;;5099473;28;20225;-65
2021/08/18 06:17:58;;;;;;;5.70;3.80;;;;;;;;;;5113008;28;20283;-65
2021/08/18 06:20:26;;;;;;;8.47;4.47;;;;;;;;;;5119991;28;20233;-65
2021/08/18 06:22:55;;;;;;;8.43;3.70;;;;;;;;;;5119938;27;20623;-65
2021/08/18 06:25:23;;;;;;;7.13;3.77;;;;;;;;;;5112586;28;20217;-65
2021/08/18 06:27:51;;;;;;;6.53;4.33;;;;;;;;;;5099549;28;20213;-65
2021/08/18 06:30:19;;;;;;;5.93;4.50;;;;;;;;;;5099051;28;20201;-65
2021/08/18 06:32:47;;;;;;;12.07;3.80;;;;;;;;;;5099454;28;20231;-64
2021/08/18 06:35:16;;;;;;;9.03;4.23;;;;;;;;;;5099426;28;20705;-65
2021/08/18 06:37:44;;;;;;;5.43;3.80;;;;;;;;;;5099355;28;20206;-65
2021/08/18 06:40:13;;;;;;;7.93;4.47;;;;;;;;;;5099578;28;20205;-65
2021/08/18 06:42:42;;;;;;;5.80;4.10;;;;;;;;;;5099573;28;20209;-65
2021/08/18 06:45:11;;;;;;;7.50;4.13;;;;;;;;;;5099052;28;20312;-65
2021/08/18 06:47:39;;;;;;;9.93;4.90;;;;;;;;;;5099053;28;20572;-64
2021/08/18 06:50:09;;;;;;;11.40;4.00;;;;;;;;;;5099108;28;20567;-65
2021/08/18 06:52:37;;;;;;;7.10;4.03;;;;;;;;;;5099066;28;20226;-65
2021/08/18 06:55:05;;;;;;;8.97;4.10;;;;;;;;;;5099193;28;20221;-64
2021/08/18 06:57:35;;;;;;;7.87;3.63;;;;;;;;;;5098983;28;20208;-65
2021/08/18 07:00:03;;;;;;;5.50;3.50;;;;;;;;;;5099068;28;20680;-65
2021/08/18 07:02:31;;;;;;;4.37;3.40;;;;;;;;;;5098818;28;20260;-64
2021/08/18 07:05:04;;;;;;;4.67;3.17;;;;;;;;;;5099008;28;20230;-65
2021/08/18 07:07:32;;;;;;;4.90;3.43;;;;;;;;;;5106111;28;20291;-64
2021/08/18 07:09:59;;;;;;;5.20;3.97;;;;;;;;;;5119070;28;20686;-64
2021/08/18 07:12:27;;;;;;;5.27;3.37;;;;;;;;;;5119182;28;20231;-65
2021/08/18 07:14:57;;;;;;;5.87;3.80;;;;;;;;;;5119089;28;20288;-65
2021/08/18 07:17:25;;;;;;;7.57;4.43;;;;;;;;;;5119207;28;20200;-65
2021/08/18 07:19:53;;;;;;;8.93;3.63;;;;;;;;;;5118876;27;20229;-64
2021/08/18 07:22:21;;;;;;;5.87;3.10;;;;;;;;;;5119558;28;20205;-65
2021/08/18 07:24:49;;;;;;;6.87;3.60;;;;;;;;;;5116037;28;20695;-64
2021/08/18 07:27:18;;;;;;;5.57;3.73;;;;;;;;;;5098584;28;20718;-65
2021/08/18 07:29:46;;;;;;;5.40;3.20;;;;;;;;;;5098210;28;20572;-64
2021/08/18 07:32:15;;;;;;;7.37;3.67;;;;;;;;;;5098647;28;20225;-65
2021/08/18 07:34:43;;;;;;;9.10;3.17;;;;;;;;;;5098202;28;20589;-64
2021/08/18 07:37:11;;;;;;;5.47;4.00;;;;;;;;;;5098523;28;20669;-65
2021/08/18 07:39:39;;;;;;;6.57;3.43;;;;;;;;;;5098627;28;20215;-65
2021/08/18 07:42:07;;;;;;;5.10;3.60;;;;;;;;;;5098617;28;20204;-64
2021/08/18 07:44:35;;;;;;;5.67;3.40;;;;;;;;;;5098081;28;20229;-65
2021/08/18 07:47:03;;;;;;;3.90;3.27;;;;;;;;;;5098165;28;20208;-64
2021/08/18 07:49:33;;;;;;;8.50;3.90;;;;;;;;;;5098401;28;20206;-64
2021/08/18 07:52:01;;;;;;;7.67;3.30;;;;;;;;;;5098347;28;20221;-64
2021/08/18 07:54:29;;;;;;;8.23;3.47;;;;;;;;;;5098002;28;20228;-65
2021/08/18 07:56:56;;;;;;;5.53;3.40;;;;;;;;;;5098352;28;20209;-65
2021/08/18 07:59:24;;;;;;;5.83;3.90;;;;;;;;;;5097600;28;20223;-64
2021/08/18 08:01:52;;;;;;;7.40;3.83;;;;;;;;;;5097804;28;20565;-64
2021/08/18 08:04:21;;;;;;;5.33;3.23;;;;;;;;;;5098024;28;20260;-65
2021/08/18 08:06:51;;;;;;;4.23;3.50;;;;;;;;;;5097954;28;20288;-64
2021/08/18 08:09:19;;;;;;;6.33;3.30;;;;;;;;;;5097987;28;20209;-65
2021/08/18 08:11:47;;;;;;;8.67;3.50;;;;;;;;;;5097903;28;20237;-64
2021/08/18 08:14:15;;;;;;;5.13;3.37;;;;;;;;;;5097416;28;20226;-65
2021/08/18 08:16:43;;;;;;;8.80;3.47;;;;;;;;;;5100037;28;20201;-64
2021/08/18 08:19:11;;;;;;;4.80;2.93;;;;;;;;;;5117565;28;20235;-65
2021/08/18 08:21:39;;;;;;;8.40;3.27;;;;;;;;;;5118061;28;20209;-65
2021/08/18 08:24:08;;;;;;;4.60;3.40;;;;;;;;;;5117976;28;20225;-64
2021/08/18 08:26:36;;;;;;;6.23;3.50;;;;;;;;;;5100688;28;20209;-65
2021/08/18 08:29:04;;;;;;;5.70;3.50;;;;;;;;;;5097544;28;20292;-64
2021/08/18 08:31:32;;;;;;;6.70;3.37;;;;;;;;;;5097469;28;20239;-64
2021/08/18 08:34:00;;;;;;;7.30;3.03;;;;;;;;;;5097418;28;20233;-65
2021/08/18 08:36:28;;;;;;;4.37;2.83;;;;;;;;;;5097500;28;20210;-64
2021/08/18 08:38:56;;;;;;;5.20;3.20;;;;;;;;;;5097650;28;20216;-64
2021/08/18 08:41:26;;;;;;;5.90;3.20;;;;;;;;;;5097505;28;20209;-64
2021/08/18 08:43:54;;;;;;;4.70;2.90;;;;;;;;;;5097513;28;20312;-65
2021/08/18 08:46:22;;;;;;;5.03;2.97;;;;;;;;;;5097241;28;20622;-65
2021/08/18 08:48:50;;;;;;;6.33;3.17;;;;;;;;;;5097764;28;20209;-65
2021/08/18 08:51:19;;;;;;;5.43;2.87;;;;;;;;;;5104272;28;20230;-64
2021/08/18 08:53:47;;;;;;;6.40;2.83;;;;;;;;;;5117458;28;20796;-64
2021/08/18 08:56:15;;;;;;;4.90;3.10;;;;;;;;;;5118159;28;20219;-64
2021/08/18 08:58:44;;;;;;;4.47;3.20;;;;;;;;;;5117363;28;20208;-64
2021/08/18 09:01:12;;;;;;;6.53;2.90;;;;;;;;;;5117978;28;20200;-64
2021/08/18 09:03:45;;;;;;;8.57;3.50;;;;;;;;;;5117802;28;20201;-64
2021/08/18 09:06:19;;;;;;;3.00;2.70;;;;;;;;;;5117540;28;20543;-64
2021/08/18 09:08:49;;;;;;;4.13;2.70;;;;;;;;;;5117862;28;20208;-64
2021/08/18 09:11:18;;;;;;;5.37;3.20;;;;;;;;;;5117873;28;20217;-64
2021/08/18 09:13:48;;;;;;;5.03;3.03;;;;;;;;;;5117487;28;20231;-64
2021/08/18 09:16:17;;;;;;;4.60;3.10;;;;;;;;;;5117598;28;20235;-64
2021/08/18 09:18:46;;;;;;;6.20;3.67;;;;;;;;;;5117381;28;20205;-64
2021/08/18 09:21:27;;;;;;;6.43;3.40;;;;;;;;;;5117639;28;20205;-64
2021/08/18 09:24:18;;;;;;;4.83;3.10;;;;;;;;;;5117531;28;20224;-64
2021/08/18 09:26:48;;;;;;;5.53;2.97;;;;;;;;;;5098610;28;20212;-64
2021/08/18 09:29:26;;;;;;;4.80;2.60;;;;;;;;;;5097264;28;20288;-64
2021/08/18 09:31:55;;;;;;;4.80;2.63;;;;;;;;;;5108410;28;20205;-64
2021/08/18 09:34:22;;;;;;;8.27;3.17;;;;;;;;;;5121068;28;20225;-64
2021/08/18 09:36:50;;;;;;;3.93;2.50;;;;;;;;;;5121157;28;20219;-64
2021/08/18 09:39:19;;;;;;;3.50;2.83;;;;;;;;;;5121142;28;20212;-64
2021/08/18 09:41:47;;;;;;;3.87;3.27;;;;;;;;;;5121117;28;20211;-64
2021/08/18 09:44:15;;;;;;;4.27;2.97;;;;;;;;;;5120800;28;20224;-64
2021/08/18 09:46:44;;;;;;;5.70;2.60;;;;;;;;;;5121003;28;20211;-64
2021/08/18 09:49:13;;;;;;;4.40;2.70;;;;;;;;;;5120828;28;20292;-64
2021/08/18 09:51:43;;;;;;;5.83;2.87;;;;;;;;;;5121000;28;20209;-64
2021/08/18 09:54:13;;;;;;;4.00;2.47;;;;;;;;;;5120826;28;20254;-64
2021/08/18 09:56:42;;;;;;;5.53;2.90;;;;;;;;;;5120708;28;20569;-64
2021/08/18 09:59:10;;;;;;;6.00;3.30;;;;;;;;;;5120694;28;20204;-64
2021/08/18 10:01:40;;;;;;;3.07;2.77;;;;;;;;;;5120501;28;20211;-64
2021/08/18 10:04:10;;;;;;;2.80;2.47;;;;;;;;;;5120480;27;20695;-64
2021/08/18 10:06:38;;;;;;;3.00;2.77;;;;;;;;;;5120589;28;20215;-64
2021/08/18 10:09:06;;;;;;;3.90;2.60;;;;;;;;;;5120676;28;20205;-65
2021/08/18 10:11:34;;;;;;;3.53;2.40;;;;;;;;;;5120591;28;20213;-64
2021/08/18 10:14:02;;;;;;;5.47;2.70;;;;;;;;;;5119973;28;20232;-64
2021/08/18 10:16:31;;;;;;;5.43;2.80;;;;;;;;;;5119803;28;20211;-64
2021/08/18 10:19:04;;;;;;;3.87;2.70;;;;;;;;;;5120089;28;20204;-64
2021/08/18 10:21:35;;;;;;;4.23;2.47;;;;;;;;;;5120397;28;20228;-64
2021/08/18 10:24:04;;;;;;;3.00;2.70;;;;;;;;;;5120025;28;20239;-64
2021/08/18 10:26:52;;;;;;;3.40;2.40;;;;;;;;;;5102619;28;20210;-64
2021/08/18 10:29:34;;;;;;;3.63;2.30;;;;;;;;;;5096167;28;20752;-64
2021/08/18 10:32:03;;;;;;;4.87;2.77;;;;;;;;;;5099574;28;20205;-64
2021/08/18 10:34:51;;;;;;;4.80;2.70;;;;;;;;;;5099586;28;20242;-64
2021/08/18 10:37:25;;;;;;;2.53;1.87;;;;;;;;;;5099661;28;20209;-64
2021/08/18 10:39:54;;;;;;;4.33;2.27;;;;;;;;;;5106748;28;20246;-64
2021/08/18 10:42:36;;;;;;;4.30;2.40;;;;;;;;;;5120031;28;20200;-65
2021/08/18 10:45:04;;;;;;;3.30;2.37;;;;;;;;;;5119564;28;20707;-64
2021/08/18 10:47:39;;;;;;;3.80;2.33;;;;;;;;;;5119773;28;20215;-64
2021/08/18 10:50:39;;;;;;;3.17;2.27;;;;;;;;;;5119931;28;20204;-64
2021/08/18 10:53:27;;;;;;;3.77;2.13;;;;;;;;;;5119586;28;20209;-64
2021/08/18 10:55:55;;;;;;;3.47;2.40;;;;;;;;;;5119871;28;20211;-64
2021/08/18 10:58:33;;;;;;;3.03;2.30;;;;;;;;;;5119327;28;20204;-64
2021/08/18 11:01:01;;;;;;;4.47;2.07;;;;;;;;;;5119721;28;20678;-64
2021/08/18 11:03:32;;;;;;;2.67;2.40;;;;;;;;;;5119387;28;20278;-65
2021/08/18 11:06:00;;;;;;;3.17;2.60;;;;;;;;;;5119757;28;20240;-65
2021/08/18 11:08:37;;;;;;;4.57;2.10;;;;;;;;;;5119272;28;20262;-64
2021/08/18 11:11:15;;;;;;;3.67;2.10;;;;;;;;;;5119505;28;20208;-64
2021/08/18 11:13:45;;;;;;;3.67;2.50;;;;;;;;;;5118729;28;20260;-64
2021/08/18 11:16:14;;;;;;;5.80;2.60;;;;;;;;;;5119177;28;20258;-64
2021/08/18 11:18:49;;;;;;;3.47;2.37;;;;;;;;;;5119272;28;20257;-64
2021/08/18 11:21:18;;;;;;;4.93;2.60;;;;;;;;;;5119209;28;20214;-64
2021/08/18 11:23:53;;;;;;;3.53;2.80;;;;;;;;;;5118876;28;20593;-64
2021/08/18 11:26:22;;;;;;;7.03;2.60;;;;;;;;;;5114035;28;20211;-64
2021/08/18 11:28:55;;;;;;;4.90;2.50;;;;;;;;;;5118650;28;20213;-64
2021/08/18 11:31:36;;;;;;;2.07;1.87;;;;;;;;;;5118689;28;20292;-65
2021/08/18 11:34:05;;;;;;;3.73;2.63;;;;;;;;;;5118860;28;20235;-65
2021/08/18 11:36:35;;;;;;;6.57;2.73;;;;;;;;;;5119134;27;20209;-65
2021/08/18 11:39:05;;;;;;;3.77;2.10;;;;;;;;;;5118959;28;20215;-65
2021/08/18 11:41:34;;;;;;;4.20;2.20;;;;;;;;;;5119044;28;20208;-65
2021/08/18 11:44:02;;;;;;;2.33;2.13;;;;;;;;;;5118145;28;20740;-65
2021/08/18 11:46:30;;;;;;;2.30;2.10;;;;;;;;;;5118472;28;20201;-65
2021/08/18 11:49:06;;;;;;;6.50;2.30;;;;;;;;;;5118327;28;20227;-65
2021/08/18 11:51:34;;;;;;;5.87;2.33;;;;;;;;;;5118356;28;20304;-65
2021/08/18 11:54:04;;;;;;;5.17;2.30;;;;;;;;;;5118170;28;20229;-65
2021/08/18 11:56:32;;;;;;;4.80;2.10;;;;;;;;;;5118376;28;20208;-65
2021/08/18 11:59:01;;;;;;;2.80;2.10;;;;;;;;;;5118151;28;20571;-63
2021/08/18 12:01:29;;;;;;;3.83;1.97;;;;;;;;;;5118449;28;20244;-63
2021/08/18 12:03:57;;;;;;;5.27;2.10;;;;;;;;;;5118350;28;20224;-63
2021/08/18 12:06:29;;;;;;;2.57;1.73;;;;;;;;;;5118330;28;20739;-64
2021/08/18 12:08:57;;;;;;;3.90;1.97;;;;;;;;;;5118145;28;20316;-64
2021/08/18 12:11:37;;;;;;;2.87;2.03;;;;;;;;;;5118122;28;20367;-64
2021/08/18 12:14:08;;;;;;;5.20;1.93;;;;;;;;;;5117671;28;20613;-65
2021/08/18 12:16:37;;;;;;;4.10;2.10;;;;;;;;;;5117831;28;20207;-63
2021/08/18 12:19:18;;;;;;;2.87;2.17;;;;;;;;;;5118130;28;20290;-65
2021/08/18 12:21:46;;;;;;;4.20;1.97;;;;;;;;;;5118359;28;20209;-63
2021/08/18 12:24:17;;;;;;;2.77;1.70;;;;;;;;;;5118069;28;20244;-64
2021/08/18 12:26:47;;;;;;;3.03;2.00;;;;;;;;;;5099466;28;20209;-64
2021/08/18 12:29:19;;;;;;;2.17;1.50;;;;;;;;;;5097467;28;20216;-64
2021/08/18 12:31:55;;;;;;;1.90;1.80;;;;;;;;;;5104418;28;20652;-64
2021/08/18 12:34:30;;;;;;;2.77;1.80;;;;;;;;;;5117824;28;20285;-64
2021/08/18 12:36:59;;;;;;;2.40;1.73;;;;;;;;;;5118293;28;20218;-64
2021/08/18 12:39:29;;;;;;;5.33;2.07;;;;;;;;;;5118143;28;20208;-64
2021/08/18 12:41:58;;;;;;;4.17;1.30;;;;;;;;;;5117864;28;20213;-64
2021/08/18 12:44:30;;;;;;;3.17;1.83;;;;;;;;;;5117585;28;20224;-64
2021/08/18 12:47:05;;;;;;;2.60;1.90;;;;;;;;;;5117947;28;20205;-64
2021/08/18 12:49:34;;;;;;;2.50;1.70;;;;;;;;;;5117956;28;20219;-64
2021/08/18 12:52:04;;;;;;;2.33;2.07;;;;;;;;;;5117667;28;20614;-64
2021/08/18 12:54:32;;;;;;;2.53;2.10;;;;;;;;;;5117829;28;20231;-63
2021/08/18 12:57:03;;;;;;;4.47;2.07;;;;;;;;;;5117758;28;20201;-63
2021/08/18 12:59:32;;;;;;;4.83;1.83;;;;;;;;;;5117624;28;20208;-63
2021/08/18 13:02:00;;;;;;;1.73;1.63;;;;;;;;;;5117491;28;20211;-63
2021/08/18 13:04:29;;;;;;;2.03;1.83;;;;;;;;;;5120171;28;20236;-63
2021/08/18 13:06:57;;;;;;;2.10;1.90;;;;;;;;;;5121655;28;20215;-63
2021/08/18 13:09:24;;;;;;;2.80;2.00;;;;;;;;;;5122001;28;20288;-63
2021/08/18 13:11:53;;;;;;;5.30;1.80;;;;;;;;;;5121820;28;20205;-63
2021/08/18 13:14:22;;;;;;;3.43;2.00;;;;;;;;;;5121170;28;20233;-63
2021/08/18 13:16:50;;;;;;;2.50;1.73;;;;;;;;;;5121439;28;20194;-63
2021/08/18 13:19:18;;;;;;;1.80;1.70;;;;;;;;;;5121351;27;20724;-63
2021/08/18 13:21:46;;;;;;;1.83;1.63;;;;;;;;;;5121489;27;20210;-63
2021/08/18 13:24:15;;;;;;;3.90;2.67;;;;;;;;;;5121312;28;20691;-63
2021/08/18 13:26:46;;;;;;;3.73;1.80;;;;;;;;;;5103037;28;20202;-63
2021/08/18 13:29:14;;;;;;;1.80;1.70;;;;;;;;;;5100770;28;20623;-63
2021/08/18 13:31:44;;;;;;;1.60;1.50;;;;;;;;;;5100625;28;20683;-63
2021/08/18 13:34:11;;;;;;;2.30;2.10;;;;;;;;;;5116735;28;20222;-63
2021/08/18 13:36:40;;;;;;;3.43;2.03;;;;;;;;;;5120945;28;20606;-65
2021/08/18 13:39:07;;;;;;;2.23;2.03;;;;;;;;;;5121093;28;20218;-64
2021/08/18 13:41:38;;;;;;;2.30;2.10;;;;;;;;;;5120838;27;20209;-63
2021/08/18 13:44:08;;;;;;;3.03;2.40;;;;;;;;;;5120533;28;20714;-64
2021/08/18 13:46:36;;;;;;;2.60;2.10;;;;;;;;;;5120786;28;20197;-64
2021/08/18 13:49:06;;;;;;;3.23;2.00;;;;;;;;;;5120765;28;20669;-64
2021/08/18 13:51:33;;;;;;;1.80;1.70;;;;;;;;;;5120984;28;20204;-63
2021/08/18 13:54:02;;;;;;;2.47;2.27;;;;;;;;;;5120695;28;20229;-63
2021/08/18 13:56:30;;;;;;;2.50;1.70;;;;;;;;;;5120815;28;20230;-64
2021/08/18 13:58:58;;;;;;;3.70;1.90;;;;;;;;;;5120141;28;20214;-63
2021/08/18 14:01:26;;;;;;;5.13;4.00;;;;;;;;;;5120519;28;20209;-63
2021/08/18 14:03:59;;;;;;;2.13;1.80;;;;;;;;;;5120645;28;20719;-63
2021/08/18 14:06:28;;;;;;;5.37;2.10;;;;;;;;;;5120887;28;20292;-63
2021/08/18 14:08:56;;;;;;;1.83;1.73;;;;;;;;;;5120507;28;20208;-63
2021/08/18 14:11:24;;;;;;;2.37;1.87;;;;;;;;;;5120546;28;20205;-63
2021/08/18 14:13:52;;;;;;;3.53;2.20;;;;;;;;;;5120468;28;20224;-63
2021/08/18 14:16:20;;;;;;;3.53;2.20;;;;;;;;;;5119287;28;20565;-63
2021/08/18 14:18:49;;;;;;;2.57;2.37;;;;;;;;;;5120146;28;20245;-64
2021/08/18 14:21:17;;;;;;;2.50;2.30;;;;;;;;;;5120521;28;20207;-64
2021/08/18 14:23:47;;;;;;;3.30;2.20;;;;;;;;;;5107160;28;20227;-64
2021/08/18 14:26:16;;;;;;;3.27;2.00;;;;;;;;;;5105521;28;20200;-63
2021/08/18 14:28:44;;;;;;;2.30;1.80;;;;;;;;;;5099869;28;20289;-63
2021/08/18 14:31:12;;;;;;;3.00;2.50;;;;;;;;;;5099461;28;20214;-64
2021/08/18 14:33:39;;;;;;;4.13;2.00;;;;;;;;;;5099740;28;20215;-63
2021/08/18 14:36:07;;;;;;;3.30;2.23;;;;;;;;;;5099411;28;20221;-64
2021/08/18 14:38:35;;;;;;;3.13;1.90;;;;;;;;;;5099941;28;20209;-63
2021/08/18 14:41:05;;;;;;;2.77;2.27;;;;;;;;;;5099657;28;20223;-63
2021/08/18 14:43:33;;;;;;;6.53;2.20;;;;;;;;;;5099399;28;20218;-63
2021/08/18 14:46:01;;;;;;;2.57;1.90;;;;;;;;;;5099383;28;20240;-64
2021/08/18 14:48:29;;;;;;;1.77;1.67;;;;;;;;;;5099588;28;20212;-64
2021/08/18 14:50:57;;;;;;;2.20;2.00;;;;;;;;;;5099264;28;20209;-63
2021/08/18 14:53:25;;;;;;;3.17;1.97;;;;;;;;;;5099223;28;20266;-64